sensor_id;sensor_type;location;lat;lon;timestamp;P1;durP1;ratioP1;P2;durP2;ratioP2
47635;SDS011;33364;50.766;15.338;2023-11-21T00:01:37;19.77;;;9.05;;
47635;SDS011;33364;50.766;15.338;2023-11-21T00:04:03;21.70;;;7.80;;
47635;SDS011;33364;50.766;15.338;2023-11-21T00:06:29;23.45;;;9.18;;
47635;SDS011;33364;50.766;15.338;2023-11-21T00:08:55;20.85;;;8.43;;
47635;SDS011;33364;50.766;15.338;2023-11-21T00:11:22;15.77;;;8.27;;
47635;SDS011;33364;50.766;15.338;2023-11-21T00:13:48;16.50;;;7.25;;
47635;SDS011;33364;50.766;15.338;2023-11-21T00:16:13;16.65;;;7.25;;
47635;SDS011;33364;50.766;15.338;2023-11-21T00:18:39;17.73;;;6.78;;
47635;SDS011;33364;50.766;15.338;2023-11-21T00:21:05;15.80;;;6.93;;
47635;SDS011;33364;50.766;15.338;2023-11-21T00:23:31;18.52;;;7.07;;
47635;SDS011;33364;50.766;15.338;2023-11-21T00:25:57;17.27;;;7.10;;
47635;SDS011;33364;50.766;15.338;2023-11-21T00:28:23;10.82;;;5.75;;
47635;SDS011;33364;50.766;15.338;2023-11-21T00:30:49;12.88;;;5.60;;
47635;SDS011;33364;50.766;15.338;2023-11-21T00:33:15;12.20;;;6.38;;
47635;SDS011;33364;50.766;15.338;2023-11-21T00:35:41;10.23;;;6.22;;
47635;SDS011;33364;50.766;15.338;2023-11-21T00:38:06;12.52;;;6.63;;
47635;SDS011;33364;50.766;15.338;2023-11-21T00:40:34;14.43;;;6.80;;
47635;SDS011;33364;50.766;15.338;2023-11-21T00:42:59;11.32;;;6.32;;
47635;SDS011;33364;50.766;15.338;2023-11-21T00:45:25;14.77;;;5.90;;
47635;SDS011;33364;50.766;15.338;2023-11-21T00:47:51;15.10;;;7.25;;
47635;SDS011;33364;50.766;15.338;2023-11-21T00:50:17;16.85;;;7.68;;
47635;SDS011;33364;50.766;15.338;2023-11-21T00:52:42;12.10;;;7.22;;
47635;SDS011;33364;50.766;15.338;2023-11-21T00:55:08;17.50;;;7.80;;
47635;SDS011;33364;50.766;15.338;2023-11-21T00:57:35;11.13;;;6.38;;
47635;SDS011;33364;50.766;15.338;2023-11-21T01:00:01;14.88;;;6.45;;
47635;SDS011;33364;50.766;15.338;2023-11-21T01:02:32;13.57;;;6.38;;
47635;SDS011;33364;50.766;15.338;2023-11-21T01:04:59;13.82;;;7.50;;
47635;SDS011;33364;50.766;15.338;2023-11-21T01:07:24;11.27;;;6.72;;
47635;SDS011;33364;50.766;15.338;2023-11-21T01:09:50;12.48;;;6.55;;
47635;SDS011;33364;50.766;15.338;2023-11-21T01:12:16;14.52;;;7.25;;
47635;SDS011;33364;50.766;15.338;2023-11-21T01:14:43;11.40;;;7.28;;
47635;SDS011;33364;50.766;15.338;2023-11-21T01:17:10;16.98;;;7.90;;
47635;SDS011;33364;50.766;15.338;2023-11-21T01:19:36;13.85;;;7.25;;
47635;SDS011;33364;50.766;15.338;2023-11-21T01:22:02;16.00;;;7.28;;
47635;SDS011;33364;50.766;15.338;2023-11-21T01:24:29;14.02;;;7.45;;
47635;SDS011;33364;50.766;15.338;2023-11-21T01:26:55;12.68;;;7.20;;
47635;SDS011;33364;50.766;15.338;2023-11-21T01:29:21;16.88;;;8.60;;
47635;SDS011;33364;50.766;15.338;2023-11-21T01:31:46;17.20;;;8.52;;
47635;SDS011;33364;50.766;15.338;2023-11-21T01:34:12;13.88;;;8.10;;
47635;SDS011;33364;50.766;15.338;2023-11-21T01:36:39;22.08;;;8.57;;
47635;SDS011;33364;50.766;15.338;2023-11-21T01:39:05;20.65;;;9.65;;
47635;SDS011;33364;50.766;15.338;2023-11-21T01:41:34;39.50;;;13.43;;
47635;SDS011;33364;50.766;15.338;2023-11-21T01:44:00;24.88;;;11.90;;
47635;SDS011;33364;50.766;15.338;2023-11-21T01:46:26;35.13;;;14.80;;
47635;SDS011;33364;50.766;15.338;2023-11-21T01:48:52;91.00;;;16.83;;
47635;SDS011;33364;50.766;15.338;2023-11-21T01:51:18;72.93;;;21.52;;
47635;SDS011;33364;50.766;15.338;2023-11-21T01:53:45;55.75;;;19.23;;
47635;SDS011;33364;50.766;15.338;2023-11-21T01:56:12;51.60;;;20.52;;
47635;SDS011;33364;50.766;15.338;2023-11-21T01:58:39;42.15;;;18.25;;
47635;SDS011;33364;50.766;15.338;2023-11-21T02:01:05;34.97;;;16.05;;
47635;SDS011;33364;50.766;15.338;2023-11-21T02:03:31;35.45;;;17.10;;
47635;SDS011;33364;50.766;15.338;2023-11-21T02:05:57;37.83;;;16.45;;
47635;SDS011;33364;50.766;15.338;2023-11-21T02:08:24;35.38;;;16.08;;
47635;SDS011;33364;50.766;15.338;2023-11-21T02:10:49;36.53;;;15.63;;
47635;SDS011;33364;50.766;15.338;2023-11-21T02:13:15;33.30;;;15.45;;
47635;SDS011;33364;50.766;15.338;2023-11-21T02:15:41;33.25;;;13.88;;
47635;SDS011;33364;50.766;15.338;2023-11-21T02:18:08;25.30;;;12.65;;
47635;SDS011;33364;50.766;15.338;2023-11-21T02:20:36;28.10;;;12.98;;
47635;SDS011;33364;50.766;15.338;2023-11-21T02:23:04;23.92;;;12.27;;
47635;SDS011;33364;50.766;15.338;2023-11-21T02:25:31;23.17;;;11.07;;
47635;SDS011;33364;50.766;15.338;2023-11-21T02:27:59;23.85;;;11.30;;
47635;SDS011;33364;50.766;15.338;2023-11-21T02:30:26;23.55;;;11.80;;
47635;SDS011;33364;50.766;15.338;2023-11-21T02:32:58;24.98;;;12.45;;
47635;SDS011;33364;50.766;15.338;2023-11-21T02:35:25;23.13;;;11.23;;
47635;SDS011;33364;50.766;15.338;2023-11-21T02:37:54;22.52;;;12.43;;
47635;SDS011;33364;50.766;15.338;2023-11-21T02:40:19;19.48;;;10.10;;
47635;SDS011;33364;50.766;15.338;2023-11-21T02:42:50;17.98;;;9.68;;
47635;SDS011;33364;50.766;15.338;2023-11-21T02:45:19;16.38;;;8.80;;
47635;SDS011;33364;50.766;15.338;2023-11-21T02:47:47;14.27;;;7.63;;
47635;SDS011;33364;50.766;15.338;2023-11-21T02:50:14;18.02;;;9.27;;
47635;SDS011;33364;50.766;15.338;2023-11-21T02:52:40;20.27;;;8.77;;
47635;SDS011;33364;50.766;15.338;2023-11-21T02:55:07;14.88;;;8.00;;
47635;SDS011;33364;50.766;15.338;2023-11-21T02:57:33;16.73;;;9.27;;
47635;SDS011;33364;50.766;15.338;2023-11-21T02:59:59;17.83;;;9.88;;
47635;SDS011;33364;50.766;15.338;2023-11-21T03:02:25;14.85;;;8.48;;
47635;SDS011;33364;50.766;15.338;2023-11-21T03:04:51;22.67;;;10.20;;
47635;SDS011;33364;50.766;15.338;2023-11-21T03:07:17;19.77;;;10.55;;
47635;SDS011;33364;50.766;15.338;2023-11-21T03:09:47;21.67;;;11.57;;
47635;SDS011;33364;50.766;15.338;2023-11-21T03:12:13;31.02;;;16.80;;
47635;SDS011;33364;50.766;15.338;2023-11-21T03:14:39;36.20;;;16.92;;
47635;SDS011;33364;50.766;15.338;2023-11-21T03:17:05;37.33;;;18.83;;
47635;SDS011;33364;50.766;15.338;2023-11-21T03:19:31;40.17;;;21.30;;
47635;SDS011;33364;50.766;15.338;2023-11-21T03:21:58;33.85;;;17.08;;
47635;SDS011;33364;50.766;15.338;2023-11-21T03:24:24;129.90;;;20.70;;
47635;SDS011;33364;50.766;15.338;2023-11-21T03:26:50;43.40;;;15.63;;
47635;SDS011;33364;50.766;15.338;2023-11-21T03:29:16;42.53;;;16.98;;
47635;SDS011;33364;50.766;15.338;2023-11-21T03:31:42;33.58;;;15.77;;
47635;SDS011;33364;50.766;15.338;2023-11-21T03:34:10;37.65;;;16.20;;
47635;SDS011;33364;50.766;15.338;2023-11-21T03:36:40;34.72;;;15.48;;
47635;SDS011;33364;50.766;15.338;2023-11-21T03:39:06;30.00;;;14.07;;
47635;SDS011;33364;50.766;15.338;2023-11-21T03:41:32;31.42;;;15.00;;
47635;SDS011;33364;50.766;15.338;2023-11-21T03:43:59;32.03;;;14.02;;
47635;SDS011;33364;50.766;15.338;2023-11-21T03:46:25;32.42;;;14.65;;
47635;SDS011;33364;50.766;15.338;2023-11-21T03:48:51;31.70;;;15.90;;
47635;SDS011;33364;50.766;15.338;2023-11-21T03:51:17;70.00;;;17.25;;
47635;SDS011;33364;50.766;15.338;2023-11-21T03:53:42;32.05;;;15.18;;
47635;SDS011;33364;50.766;15.338;2023-11-21T03:56:08;40.03;;;14.90;;
47635;SDS011;33364;50.766;15.338;2023-11-21T03:58:35;38.50;;;14.50;;
47635;SDS011;33364;50.766;15.338;2023-11-21T04:01:01;59.25;;;16.30;;
47635;SDS011;33364;50.766;15.338;2023-11-21T04:03:26;35.17;;;17.27;;
47635;SDS011;33364;50.766;15.338;2023-11-21T04:05:52;35.83;;;16.77;;
47635;SDS011;33364;50.766;15.338;2023-11-21T04:08:18;42.53;;;16.33;;
47635;SDS011;33364;50.766;15.338;2023-11-21T04:10:44;178.18;;;23.80;;
47635;SDS011;33364;50.766;15.338;2023-11-21T04:13:10;62.78;;;18.58;;
47635;SDS011;33364;50.766;15.338;2023-11-21T04:15:36;43.30;;;18.17;;
47635;SDS011;33364;50.766;15.338;2023-11-21T04:18:02;35.67;;;16.70;;
47635;SDS011;33364;50.766;15.338;2023-11-21T04:20:28;43.63;;;18.05;;
47635;SDS011;33364;50.766;15.338;2023-11-21T04:22:54;68.70;;;19.55;;
47635;SDS011;33364;50.766;15.338;2023-11-21T04:25:20;33.63;;;16.15;;
47635;SDS011;33364;50.766;15.338;2023-11-21T04:27:45;38.90;;;16.85;;
47635;SDS011;33364;50.766;15.338;2023-11-21T04:30:12;31.70;;;14.85;;
47635;SDS011;33364;50.766;15.338;2023-11-21T04:32:38;31.70;;;13.90;;
47635;SDS011;33364;50.766;15.338;2023-11-21T04:35:05;25.42;;;12.60;;
47635;SDS011;33364;50.766;15.338;2023-11-21T04:37:31;35.50;;;15.05;;
47635;SDS011;33364;50.766;15.338;2023-11-21T04:39:57;28.42;;;13.63;;
47635;SDS011;33364;50.766;15.338;2023-11-21T04:42:22;30.73;;;15.30;;
47635;SDS011;33364;50.766;15.338;2023-11-21T04:44:49;31.75;;;14.80;;
47635;SDS011;33364;50.766;15.338;2023-11-21T04:47:15;25.25;;;13.52;;
47635;SDS011;33364;50.766;15.338;2023-11-21T04:49:44;31.05;;;14.82;;
47635;SDS011;33364;50.766;15.338;2023-11-21T04:52:12;35.30;;;13.35;;
47635;SDS011;33364;50.766;15.338;2023-11-21T04:54:38;25.30;;;12.63;;
47635;SDS011;33364;50.766;15.338;2023-11-21T04:57:05;26.13;;;13.63;;
47635;SDS011;33364;50.766;15.338;2023-11-21T04:59:33;29.80;;;14.27;;
47635;SDS011;33364;50.766;15.338;2023-11-21T05:02:00;25.05;;;14.23;;
47635;SDS011;33364;50.766;15.338;2023-11-21T05:04:26;22.83;;;12.95;;
47635;SDS011;33364;50.766;15.338;2023-11-21T05:06:52;24.30;;;13.90;;
47635;SDS011;33364;50.766;15.338;2023-11-21T05:09:18;26.67;;;14.82;;
47635;SDS011;33364;50.766;15.338;2023-11-21T05:11:43;23.50;;;12.48;;
47635;SDS011;33364;50.766;15.338;2023-11-21T05:14:09;22.90;;;11.88;;
47635;SDS011;33364;50.766;15.338;2023-11-21T05:16:35;25.27;;;13.43;;
47635;SDS011;33364;50.766;15.338;2023-11-21T05:19:02;31.80;;;16.05;;
47635;SDS011;33364;50.766;15.338;2023-11-21T05:21:29;33.63;;;16.17;;
47635;SDS011;33364;50.766;15.338;2023-11-21T05:23:58;31.30;;;14.60;;
47635;SDS011;33364;50.766;15.338;2023-11-21T05:26:24;26.35;;;13.35;;
47635;SDS011;33364;50.766;15.338;2023-11-21T05:28:50;26.42;;;15.95;;
47635;SDS011;33364;50.766;15.338;2023-11-21T05:31:16;34.58;;;17.27;;
47635;SDS011;33364;50.766;15.338;2023-11-21T05:33:42;34.38;;;16.25;;
47635;SDS011;33364;50.766;15.338;2023-11-21T05:36:07;28.90;;;16.48;;
47635;SDS011;33364;50.766;15.338;2023-11-21T05:38:35;29.90;;;16.50;;
47635;SDS011;33364;50.766;15.338;2023-11-21T05:41:02;29.35;;;16.70;;
47635;SDS011;33364;50.766;15.338;2023-11-21T05:43:30;25.45;;;15.23;;
47635;SDS011;33364;50.766;15.338;2023-11-21T05:45:59;29.42;;;15.50;;
47635;SDS011;33364;50.766;15.338;2023-11-21T05:48:25;31.63;;;16.40;;
47635;SDS011;33364;50.766;15.338;2023-11-21T05:50:52;32.13;;;16.33;;
47635;SDS011;33364;50.766;15.338;2023-11-21T05:53:18;30.42;;;15.98;;
47635;SDS011;33364;50.766;15.338;2023-11-21T05:55:45;23.38;;;13.35;;
47635;SDS011;33364;50.766;15.338;2023-11-21T05:58:11;35.20;;;17.02;;
47635;SDS011;33364;50.766;15.338;2023-11-21T06:00:38;22.38;;;12.25;;
47635;SDS011;33364;50.766;15.338;2023-11-21T06:03:04;22.92;;;14.77;;
47635;SDS011;33364;50.766;15.338;2023-11-21T06:05:32;26.40;;;14.45;;
47635;SDS011;33364;50.766;15.338;2023-11-21T06:07:59;22.92;;;12.75;;
47635;SDS011;33364;50.766;15.338;2023-11-21T06:10:26;22.17;;;12.90;;
47635;SDS011;33364;50.766;15.338;2023-11-21T06:12:53;23.23;;;14.93;;
47635;SDS011;33364;50.766;15.338;2023-11-21T06:15:19;24.98;;;15.32;;
47635;SDS011;33364;50.766;15.338;2023-11-21T06:17:46;28.50;;;13.93;;
47635;SDS011;33364;50.766;15.338;2023-11-21T06:20:14;25.23;;;16.02;;
47635;SDS011;33364;50.766;15.338;2023-11-21T06:22:41;26.90;;;17.40;;
47635;SDS011;33364;50.766;15.338;2023-11-21T06:25:08;20.38;;;12.95;;
47635;SDS011;33364;50.766;15.338;2023-11-21T06:27:37;21.92;;;12.05;;
47635;SDS011;33364;50.766;15.338;2023-11-21T06:30:04;19.95;;;11.55;;
47635;SDS011;33364;50.766;15.338;2023-11-21T06:32:32;31.17;;;15.45;;
47635;SDS011;33364;50.766;15.338;2023-11-21T06:34:58;24.35;;;13.45;;
47635;SDS011;33364;50.766;15.338;2023-11-21T06:37:27;22.00;;;13.43;;
47635;SDS011;33364;50.766;15.338;2023-11-21T06:39:53;19.88;;;12.70;;
47635;SDS011;33364;50.766;15.338;2023-11-21T06:42:19;24.10;;;13.20;;
47635;SDS011;33364;50.766;15.338;2023-11-21T06:44:46;20.63;;;12.48;;
47635;SDS011;33364;50.766;15.338;2023-11-21T06:47:13;22.00;;;12.38;;
47635;SDS011;33364;50.766;15.338;2023-11-21T06:49:39;25.10;;;11.77;;
47635;SDS011;33364;50.766;15.338;2023-11-21T06:52:06;18.77;;;10.85;;
47635;SDS011;33364;50.766;15.338;2023-11-21T06:54:33;21.63;;;14.07;;
47635;SDS011;33364;50.766;15.338;2023-11-21T06:57:00;20.30;;;13.55;;
47635;SDS011;33364;50.766;15.338;2023-11-21T06:59:28;22.90;;;12.90;;
47635;SDS011;33364;50.766;15.338;2023-11-21T07:01:54;18.05;;;11.20;;
47635;SDS011;33364;50.766;15.338;2023-11-21T07:04:20;19.48;;;11.48;;
47635;SDS011;33364;50.766;15.338;2023-11-21T07:06:46;17.92;;;9.35;;
47635;SDS011;33364;50.766;15.338;2023-11-21T07:09:11;19.63;;;8.82;;
47635;SDS011;33364;50.766;15.338;2023-11-21T07:11:38;18.73;;;8.30;;
47635;SDS011;33364;50.766;15.338;2023-11-21T07:14:04;17.50;;;9.23;;
47635;SDS011;33364;50.766;15.338;2023-11-21T07:16:36;17.40;;;9.93;;
47635;SDS011;33364;50.766;15.338;2023-11-21T07:19:03;21.20;;;10.20;;
47635;SDS011;33364;50.766;15.338;2023-11-21T07:21:32;18.25;;;10.07;;
47635;SDS011;33364;50.766;15.338;2023-11-21T07:23:59;17.30;;;10.23;;
47635;SDS011;33364;50.766;15.338;2023-11-21T07:26:27;22.52;;;12.00;;
47635;SDS011;33364;50.766;15.338;2023-11-21T07:28:53;23.77;;;11.45;;
47635;SDS011;33364;50.766;15.338;2023-11-21T07:31:19;30.67;;;11.20;;
47635;SDS011;33364;50.766;15.338;2023-11-21T07:33:46;20.00;;;9.93;;
47635;SDS011;33364;50.766;15.338;2023-11-21T07:36:14;20.52;;;9.10;;
47635;SDS011;33364;50.766;15.338;2023-11-21T07:38:40;14.40;;;7.53;;
47635;SDS011;33364;50.766;15.338;2023-11-21T07:41:08;19.55;;;8.75;;
47635;SDS011;33364;50.766;15.338;2023-11-21T07:43:35;17.00;;;9.60;;
47635;SDS011;33364;50.766;15.338;2023-11-21T07:46:01;18.27;;;10.23;;
47635;SDS011;33364;50.766;15.338;2023-11-21T07:48:32;16.88;;;9.82;;
47635;SDS011;33364;50.766;15.338;2023-11-21T07:50:58;23.15;;;10.90;;
47635;SDS011;33364;50.766;15.338;2023-11-21T07:53:25;18.80;;;9.55;;
47635;SDS011;33364;50.766;15.338;2023-11-21T07:55:54;18.90;;;9.57;;
47635;SDS011;33364;50.766;15.338;2023-11-21T07:58:20;21.77;;;9.18;;
47635;SDS011;33364;50.766;15.338;2023-11-21T08:00:46;16.30;;;9.45;;
47635;SDS011;33364;50.766;15.338;2023-11-21T08:03:13;17.45;;;10.45;;
47635;SDS011;33364;50.766;15.338;2023-11-21T08:05:39;17.05;;;9.95;;
47635;SDS011;33364;50.766;15.338;2023-11-21T08:08:05;17.80;;;9.45;;
47635;SDS011;33364;50.766;15.338;2023-11-21T08:10:31;14.18;;;9.23;;
47635;SDS011;33364;50.766;15.338;2023-11-21T08:12:57;16.23;;;8.57;;
47635;SDS011;33364;50.766;15.338;2023-11-21T08:15:23;20.90;;;10.30;;
47635;SDS011;33364;50.766;15.338;2023-11-21T08:17:49;21.25;;;11.35;;
47635;SDS011;33364;50.766;15.338;2023-11-21T08:20:15;24.60;;;13.05;;
47635;SDS011;33364;50.766;15.338;2023-11-21T08:22:44;22.98;;;14.13;;
47635;SDS011;33364;50.766;15.338;2023-11-21T08:25:10;25.35;;;14.15;;
47635;SDS011;33364;50.766;15.338;2023-11-21T08:27:36;25.60;;;12.25;;
47635;SDS011;33364;50.766;15.338;2023-11-21T08:30:02;24.38;;;13.98;;
47635;SDS011;33364;50.766;15.338;2023-11-21T08:32:29;32.72;;;15.63;;
47635;SDS011;33364;50.766;15.338;2023-11-21T08:34:58;41.75;;;20.52;;
47635;SDS011;33364;50.766;15.338;2023-11-21T08:37:25;31.15;;;17.88;;
47635;SDS011;33364;50.766;15.338;2023-11-21T08:39:57;26.90;;;15.38;;
47635;SDS011;33364;50.766;15.338;2023-11-21T08:42:25;30.67;;;14.68;;
47635;SDS011;33364;50.766;15.338;2023-11-21T08:44:50;26.27;;;14.05;;
47635;SDS011;33364;50.766;15.338;2023-11-21T08:47:18;20.58;;;11.07;;
47635;SDS011;33364;50.766;15.338;2023-11-21T08:49:44;20.13;;;10.80;;
47635;SDS011;33364;50.766;15.338;2023-11-21T08:52:11;20.67;;;9.60;;
47635;SDS011;33364;50.766;15.338;2023-11-21T08:54:37;21.35;;;11.57;;
47635;SDS011;33364;50.766;15.338;2023-11-21T08:57:05;25.80;;;11.73;;
47635;SDS011;33364;50.766;15.338;2023-11-21T08:59:30;31.30;;;17.52;;
47635;SDS011;33364;50.766;15.338;2023-11-21T09:01:56;37.42;;;15.90;;
47635;SDS011;33364;50.766;15.338;2023-11-21T09:04:22;26.95;;;14.57;;
47635;SDS011;33364;50.766;15.338;2023-11-21T09:06:48;24.00;;;12.70;;
47635;SDS011;33364;50.766;15.338;2023-11-21T09:09:14;34.30;;;15.50;;
47635;SDS011;33364;50.766;15.338;2023-11-21T09:11:40;37.47;;;16.30;;
47635;SDS011;33364;50.766;15.338;2023-11-21T09:14:06;34.92;;;18.10;;
47635;SDS011;33364;50.766;15.338;2023-11-21T09:16:31;46.78;;;21.42;;
47635;SDS011;33364;50.766;15.338;2023-11-21T09:18:58;38.50;;;19.13;;
47635;SDS011;33364;50.766;15.338;2023-11-21T09:21:24;15.60;;;8.77;;
47635;SDS011;33364;50.766;15.338;2023-11-21T09:23:52;13.73;;;6.45;;
47635;SDS011;33364;50.766;15.338;2023-11-21T09:26:19;9.55;;;5.70;;
47635;SDS011;33364;50.766;15.338;2023-11-21T09:28:45;9.95;;;3.97;;
47635;SDS011;33364;50.766;15.338;2023-11-21T09:31:13;9.25;;;3.90;;
47635;SDS011;33364;50.766;15.338;2023-11-21T09:33:42;9.20;;;4.13;;
47635;SDS011;33364;50.766;15.338;2023-11-21T09:36:12;5.20;;;3.17;;
47635;SDS011;33364;50.766;15.338;2023-11-21T09:38:39;4.97;;;3.30;;
47635;SDS011;33364;50.766;15.338;2023-11-21T09:41:05;8.00;;;3.83;;
47635;SDS011;33364;50.766;15.338;2023-11-21T09:43:43;9.60;;;3.42;;
47635;SDS011;33364;50.766;15.338;2023-11-21T09:46:14;5.40;;;3.45;;
47635;SDS011;33364;50.766;15.338;2023-11-21T09:48:47;5.47;;;3.65;;
47635;SDS011;33364;50.766;15.338;2023-11-21T09:51:17;10.85;;;6.25;;
47635;SDS011;33364;50.766;15.338;2023-11-21T09:53:45;6.35;;;4.40;;
47635;SDS011;33364;50.766;15.338;2023-11-21T09:56:15;8.48;;;3.42;;
47635;SDS011;33364;50.766;15.338;2023-11-21T09:58:44;27.30;;;18.60;;
47635;SDS011;33364;50.766;15.338;2023-11-21T10:01:11;15.57;;;10.05;;
47635;SDS011;33364;50.766;15.338;2023-11-21T10:03:39;93.55;;;61.97;;
47635;SDS011;33364;50.766;15.338;2023-11-21T10:06:07;33.83;;;21.77;;
47635;SDS011;33364;50.766;15.338;2023-11-21T10:08:34;11.35;;;6.55;;
47635;SDS011;33364;50.766;15.338;2023-11-21T10:11:02;10.85;;;4.60;;
47635;SDS011;33364;50.766;15.338;2023-11-21T10:13:31;11.52;;;5.88;;
47635;SDS011;33364;50.766;15.338;2023-11-21T10:15:58;8.48;;;3.22;;
47635;SDS011;33364;50.766;15.338;2023-11-21T10:18:25;12.20;;;4.32;;
47635;SDS011;33364;50.766;15.338;2023-11-21T10:20:52;5.13;;;2.80;;
47635;SDS011;33364;50.766;15.338;2023-11-21T10:23:19;4.00;;;2.83;;
47635;SDS011;33364;50.766;15.338;2023-11-21T10:25:46;4.45;;;2.67;;
47635;SDS011;33364;50.766;15.338;2023-11-21T10:28:12;6.97;;;3.33;;
47635;SDS011;33364;50.766;15.338;2023-11-21T10:30:38;13.55;;;9.02;;
47635;SDS011;33364;50.766;15.338;2023-11-21T10:33:05;9.30;;;4.53;;
47635;SDS011;33364;50.766;15.338;2023-11-21T10:35:46;13.40;;;7.72;;
47635;SDS011;33364;50.766;15.338;2023-11-21T10:38:16;6.15;;;3.10;;
47635;SDS011;33364;50.766;15.338;2023-11-21T10:40:44;6.22;;;3.92;;
47635;SDS011;33364;50.766;15.338;2023-11-21T10:43:11;14.93;;;11.80;;
47635;SDS011;33364;50.766;15.338;2023-11-21T10:45:39;6.65;;;4.05;;
47635;SDS011;33364;50.766;15.338;2023-11-21T10:48:05;8.07;;;5.90;;
47635;SDS011;33364;50.766;15.338;2023-11-21T10:50:34;10.90;;;7.60;;
47635;SDS011;33364;50.766;15.338;2023-11-21T10:53:03;21.80;;;12.13;;
47635;SDS011;33364;50.766;15.338;2023-11-21T10:55:31;20.02;;;9.13;;
47635;SDS011;33364;50.766;15.338;2023-11-21T10:58:01;11.95;;;5.57;;
47635;SDS011;33364;50.766;15.338;2023-11-21T11:00:30;10.32;;;6.43;;
47635;SDS011;33364;50.766;15.338;2023-11-21T11:02:58;8.48;;;5.25;;
47635;SDS011;33364;50.766;15.338;2023-11-21T11:05:26;9.32;;;4.72;;
47635;SDS011;33364;50.766;15.338;2023-11-21T11:08:27;6.32;;;3.05;;
47635;SDS011;33364;50.766;15.338;2023-11-21T11:10:51;2.90;;;2.00;;
47635;SDS011;33364;50.766;15.338;2023-11-21T11:13:18;3.58;;;1.60;;
47635;SDS011;33364;50.766;15.338;2023-11-21T11:15:47;4.63;;;2.30;;
47635;SDS011;33364;50.766;15.338;2023-11-21T11:18:13;3.33;;;1.90;;
47635;SDS011;33364;50.766;15.338;2023-11-21T11:20:41;5.00;;;2.03;;
47635;SDS011;33364;50.766;15.338;2023-11-21T11:26:12;6.75;;;2.63;;
47635;SDS011;33364;50.766;15.338;2023-11-21T11:32:10;4.38;;;2.15;;
47635;SDS011;33364;50.766;15.338;2023-11-21T11:37:57;6.07;;;3.42;;
47635;SDS011;33364;50.766;15.338;2023-11-21T11:40:25;4.47;;;2.75;;
47635;SDS011;33364;50.766;15.338;2023-11-21T11:43:05;3.70;;;2.00;;
47635;SDS011;33364;50.766;15.338;2023-11-21T11:45:32;4.22;;;2.22;;
47635;SDS011;33364;50.766;15.338;2023-11-21T11:48:01;3.83;;;2.30;;
47635;SDS011;33364;50.766;15.338;2023-11-21T11:50:28;2.75;;;2.00;;
47635;SDS011;33364;50.766;15.338;2023-11-21T11:52:55;3.30;;;2.28;;
47635;SDS011;33364;50.766;15.338;2023-11-21T11:55:37;3.97;;;2.60;;
47635;SDS011;33364;50.766;15.338;2023-11-21T11:58:05;3.58;;;2.42;;
47635;SDS011;33364;50.766;15.338;2023-11-21T12:00:35;2.90;;;1.70;;
47635;SDS011;33364;50.766;15.338;2023-11-21T12:03:06;4.38;;;3.03;;
47635;SDS011;33364;50.766;15.338;2023-11-21T12:05:34;7.15;;;5.03;;
47635;SDS011;33364;50.766;15.338;2023-11-21T12:08:04;9.18;;;4.15;;
47635;SDS011;33364;50.766;15.338;2023-11-21T12:10:32;5.95;;;3.10;;
47635;SDS011;33364;50.766;15.338;2023-11-21T12:13:01;9.60;;;5.05;;
47635;SDS011;33364;50.766;15.338;2023-11-21T12:15:35;6.18;;;3.20;;
47635;SDS011;33364;50.766;15.338;2023-11-21T12:18:02;5.47;;;3.40;;
47635;SDS011;33364;50.766;15.338;2023-11-21T12:20:29;4.68;;;3.65;;
47635;SDS011;33364;50.766;15.338;2023-11-21T12:22:57;2.72;;;2.22;;
47635;SDS011;33364;50.766;15.338;2023-11-21T12:25:29;2.28;;;1.27;;
47635;SDS011;33364;50.766;15.338;2023-11-21T12:27:57;1.60;;;1.00;;
47635;SDS011;33364;50.766;15.338;2023-11-21T12:30:28;1.90;;;0.80;;
47635;SDS011;33364;50.766;15.338;2023-11-21T12:32:57;1.33;;;0.52;;
47635;SDS011;33364;50.766;15.338;2023-11-21T12:35:24;0.70;;;0.60;;
47635;SDS011;33364;50.766;15.338;2023-11-21T12:37:52;0.80;;;0.50;;
47635;SDS011;33364;50.766;15.338;2023-11-21T12:40:19;2.13;;;0.80;;
47635;SDS011;33364;50.766;15.338;2023-11-21T12:42:48;2.67;;;1.48;;
47635;SDS011;33364;50.766;15.338;2023-11-21T12:47:43;41.22;;;19.33;;
47635;SDS011;33364;50.766;15.338;2023-11-21T12:50:10;31.05;;;19.15;;
47635;SDS011;33364;50.766;15.338;2023-11-21T12:52:42;44.85;;;32.92;;
47635;SDS011;33364;50.766;15.338;2023-11-21T12:55:19;4.47;;;3.83;;
47635;SDS011;33364;50.766;15.338;2023-11-21T12:57:50;4.72;;;3.55;;
47635;SDS011;33364;50.766;15.338;2023-11-21T13:00:18;40.15;;;34.63;;
47635;SDS011;33364;50.766;15.338;2023-11-21T13:02:54;4.72;;;3.35;;
47635;SDS011;33364;50.766;15.338;2023-11-21T13:05:34;4.43;;;2.58;;
47635;SDS011;33364;50.766;15.338;2023-11-21T13:08:04;4.82;;;3.20;;
47635;SDS011;33364;50.766;15.338;2023-11-21T13:10:37;19.92;;;15.90;;
47635;SDS011;33364;50.766;15.338;2023-11-21T13:13:06;4.05;;;2.88;;
47635;SDS011;33364;50.766;15.338;2023-11-21T13:15:34;5.28;;;4.68;;
47635;SDS011;33364;50.766;15.338;2023-11-21T13:18:03;1.50;;;1.20;;
47635;SDS011;33364;50.766;15.338;2023-11-21T13:20:29;10.38;;;8.43;;
47635;SDS011;33364;50.766;15.338;2023-11-21T13:22:55;17.60;;;15.77;;
47635;SDS011;33364;50.766;15.338;2023-11-21T13:25:27;4.70;;;3.55;;
47635;SDS011;33364;50.766;15.338;2023-11-21T13:28:00;12.43;;;8.45;;
47635;SDS011;33364;50.766;15.338;2023-11-21T13:30:31;2.80;;;1.30;;
47635;SDS011;33364;50.766;15.338;2023-11-21T13:33:02;13.07;;;9.43;;
47635;SDS011;33364;50.766;15.338;2023-11-21T13:35:37;3.15;;;2.25;;
47635;SDS011;33364;50.766;15.338;2023-11-21T13:38:16;6.75;;;4.63;;
47635;SDS011;33364;50.766;15.338;2023-11-21T13:40:47;2.60;;;1.00;;
47635;SDS011;33364;50.766;15.338;2023-11-21T13:43:21;8.32;;;5.85;;
47635;SDS011;33364;50.766;15.338;2023-11-21T13:45:50;6.38;;;4.90;;
47635;SDS011;33364;50.766;15.338;2023-11-21T13:48:22;10.10;;;7.05;;
47635;SDS011;33364;50.766;15.338;2023-11-21T13:50:57;4.60;;;2.42;;
47635;SDS011;33364;50.766;15.338;2023-11-21T13:53:38;3.20;;;1.85;;
47635;SDS011;33364;50.766;15.338;2023-11-21T13:56:04;11.20;;;4.15;;
47635;SDS011;33364;50.766;15.338;2023-11-21T13:58:30;8.98;;;3.15;;
47635;SDS011;33364;50.766;15.338;2023-11-21T14:01:15;10.40;;;5.00;;
47635;SDS011;33364;50.766;15.338;2023-11-21T14:03:52;10.48;;;4.95;;
47635;SDS011;33364;50.766;15.338;2023-11-21T14:06:23;8.02;;;4.32;;
47635;SDS011;33364;50.766;15.338;2023-11-21T14:08:54;5.47;;;2.17;;
47635;SDS011;33364;50.766;15.338;2023-11-21T14:11:22;2.58;;;1.33;;
47635;SDS011;33364;50.766;15.338;2023-11-21T14:13:47;2.15;;;1.10;;
47635;SDS011;33364;50.766;15.338;2023-11-21T14:16:14;2.20;;;1.13;;
47635;SDS011;33364;50.766;15.338;2023-11-21T14:18:42;2.50;;;1.00;;
47635;SDS011;33364;50.766;15.338;2023-11-21T14:21:19;2.33;;;0.98;;
47635;SDS011;33364;50.766;15.338;2023-11-21T14:23:45;2.50;;;1.15;;
47635;SDS011;33364;50.766;15.338;2023-11-21T14:26:14;4.93;;;2.65;;
47635;SDS011;33364;50.766;15.338;2023-11-21T14:28:40;4.75;;;2.75;;
47635;SDS011;33364;50.766;15.338;2023-11-21T14:31:07;3.55;;;1.70;;
47635;SDS011;33364;50.766;15.338;2023-11-21T14:33:38;5.50;;;2.50;;